KMOP/MOP METAR and TAF weather

Enter ICAO airport designator
Station Type Date Time Source
KMOP METAR 2022/01/23 11:15 UTC NOAA

KMOP 231115Z AUTO 35004KT 3SM -SN SCT017 BKN022 OVC046 M10/M12 A2989 RMK AO2 T11021122


Station Type Date Time Source
KMOP Decoded METAR 2022/01/23 11:15 UTC NOAA

Mount Pleasant, Mount Pleasant Municipal Airport, MI, United States (KMOP) 43-37N 84-44W
Jan 23, 2022 - 06:15 AM EST / 2022.01.23 1115 UTC
Wind: from the N (350 degrees) at 5 MPH (4 KT):0
Visibility: 3 mile(s):0
Sky conditions: overcast
Weather: light snow
Temperature: 13.6 F (-10.2 C)
Windchill: 5 F (-15 C):1
Dew Point: 10.0 F (-12.2 C)
Relative Humidity: 85%
Pressure (altimeter): 29.89 in. Hg (1012 hPa)
ob: KMOP 231115Z AUTO 35004KT 3SM -SN SCT017 BKN022 OVC046 M10/M12 A2989 RMK AO2 T11021122
cycle: 11

Station Type Date Time Source
KMOP TAF UTC NOAA

Error!

Example: see airport list